sensor_id;sensor_type;location;lat;lon;timestamp;P1;durP1;ratioP1;P2;durP2;ratioP2
27127;SDS011;14660;49.008;8.390;2022-07-22T00:02:24;12.30;;;9.63;;
27127;SDS011;14660;49.008;8.390;2022-07-22T00:04:50;10.68;;;9.57;;
27127;SDS011;14660;49.008;8.390;2022-07-22T00:07:17;11.00;;;9.75;;
27127;SDS011;14660;49.008;8.390;2022-07-22T00:09:44;12.13;;;9.73;;
27127;SDS011;14660;49.008;8.390;2022-07-22T00:12:11;14.18;;;9.88;;
27127;SDS011;14660;49.008;8.390;2022-07-22T00:14:39;12.45;;;10.23;;
27127;SDS011;14660;49.008;8.390;2022-07-22T00:17:06;11.77;;;10.52;;
27127;SDS011;14660;49.008;8.390;2022-07-22T00:19:32;12.13;;;10.07;;
27127;SDS011;14660;49.008;8.390;2022-07-22T00:21:59;10.90;;;9.80;;
27127;SDS011;14660;49.008;8.390;2022-07-22T00:24:26;11.93;;;9.93;;
27127;SDS011;14660;49.008;8.390;2022-07-22T00:26:54;11.32;;;10.23;;
27127;SDS011;14660;49.008;8.390;2022-07-22T00:29:21;14.13;;;10.40;;
27127;SDS011;14660;49.008;8.390;2022-07-22T00:31:48;11.30;;;10.18;;
27127;SDS011;14660;49.008;8.390;2022-07-22T00:34:15;12.45;;;10.65;;
27127;SDS011;14660;49.008;8.390;2022-07-22T00:36:42;14.15;;;11.40;;
27127;SDS011;14660;49.008;8.390;2022-07-22T00:39:08;15.00;;;11.95;;
27127;SDS011;14660;49.008;8.390;2022-07-22T00:41:35;14.50;;;11.57;;
27127;SDS011;14660;49.008;8.390;2022-07-22T00:44:04;17.58;;;11.52;;
27127;SDS011;14660;49.008;8.390;2022-07-22T00:46:32;12.40;;;11.15;;
27127;SDS011;14660;49.008;8.390;2022-07-22T00:49:03;12.82;;;11.32;;
27127;SDS011;14660;49.008;8.390;2022-07-22T00:51:32;12.10;;;10.75;;
27127;SDS011;14660;49.008;8.390;2022-07-22T00:53:58;15.70;;;12.63;;
27127;SDS011;14660;49.008;8.390;2022-07-22T00:56:25;14.25;;;11.68;;
27127;SDS011;14660;49.008;8.390;2022-07-22T00:58:54;13.38;;;11.63;;
27127;SDS011;14660;49.008;8.390;2022-07-22T01:01:22;14.23;;;11.27;;
27127;SDS011;14660;49.008;8.390;2022-07-22T01:03:49;13.00;;;11.00;;
27127;SDS011;14660;49.008;8.390;2022-07-22T01:06:16;13.77;;;11.60;;
27127;SDS011;14660;49.008;8.390;2022-07-22T01:08:43;13.40;;;10.98;;
27127;SDS011;14660;49.008;8.390;2022-07-22T01:11:14;12.43;;;10.57;;
27127;SDS011;14660;49.008;8.390;2022-07-22T01:13:43;11.90;;;10.60;;
27127;SDS011;14660;49.008;8.390;2022-07-22T01:16:11;11.73;;;10.52;;
27127;SDS011;14660;49.008;8.390;2022-07-22T01:18:45;16.77;;;12.35;;
27127;SDS011;14660;49.008;8.390;2022-07-22T01:21:13;14.48;;;11.20;;
27127;SDS011;14660;49.008;8.390;2022-07-22T01:23:41;13.20;;;11.15;;
27127;SDS011;14660;49.008;8.390;2022-07-22T01:26:09;14.20;;;11.85;;
27127;SDS011;14660;49.008;8.390;2022-07-22T01:28:36;21.20;;;11.02;;
27127;SDS011;14660;49.008;8.390;2022-07-22T01:31:03;13.80;;;11.65;;
27127;SDS011;14660;49.008;8.390;2022-07-22T01:33:30;15.80;;;11.73;;
27127;SDS011;14660;49.008;8.390;2022-07-22T01:36:04;12.32;;;11.07;;
27127;SDS011;14660;49.008;8.390;2022-07-22T01:38:32;15.25;;;11.93;;
27127;SDS011;14660;49.008;8.390;2022-07-22T01:40:59;14.30;;;11.55;;
27127;SDS011;14660;49.008;8.390;2022-07-22T01:43:26;13.95;;;12.10;;
27127;SDS011;14660;49.008;8.390;2022-07-22T01:45:54;13.95;;;12.00;;
27127;SDS011;14660;49.008;8.390;2022-07-22T01:48:21;15.23;;;11.68;;
27127;SDS011;14660;49.008;8.390;2022-07-22T01:50:49;17.00;;;12.57;;
27127;SDS011;14660;49.008;8.390;2022-07-22T01:53:16;13.82;;;11.50;;
27127;SDS011;14660;49.008;8.390;2022-07-22T01:55:42;15.50;;;12.63;;
27127;SDS011;14660;49.008;8.390;2022-07-22T01:58:10;14.85;;;11.32;;
27127;SDS011;14660;49.008;8.390;2022-07-22T02:00:37;12.63;;;10.90;;
27127;SDS011;14660;49.008;8.390;2022-07-22T02:03:05;12.95;;;11.02;;
27127;SDS011;14660;49.008;8.390;2022-07-22T02:05:32;14.38;;;12.30;;
27127;SDS011;14660;49.008;8.390;2022-07-22T02:08:03;14.70;;;11.50;;
27127;SDS011;14660;49.008;8.390;2022-07-22T02:10:31;13.70;;;10.88;;
27127;SDS011;14660;49.008;8.390;2022-07-22T02:12:58;12.20;;;10.20;;
27127;SDS011;14660;49.008;8.390;2022-07-22T02:15:26;13.25;;;11.70;;
27127;SDS011;14660;49.008;8.390;2022-07-22T02:17:54;12.13;;;10.88;;
27127;SDS011;14660;49.008;8.390;2022-07-22T02:20:21;14.50;;;12.02;;
27127;SDS011;14660;49.008;8.390;2022-07-22T02:22:48;11.98;;;10.68;;
27127;SDS011;14660;49.008;8.390;2022-07-22T02:25:15;15.10;;;12.98;;
27127;SDS011;14660;49.008;8.390;2022-07-22T02:27:43;13.93;;;12.07;;
27127;SDS011;14660;49.008;8.390;2022-07-22T02:30:10;13.35;;;11.95;;
27127;SDS011;14660;49.008;8.390;2022-07-22T02:32:37;13.55;;;11.18;;
27127;SDS011;14660;49.008;8.390;2022-07-22T02:35:04;11.88;;;10.65;;
27127;SDS011;14660;49.008;8.390;2022-07-22T02:37:32;11.90;;;10.75;;
27127;SDS011;14660;49.008;8.390;2022-07-22T02:39:59;13.13;;;11.40;;
27127;SDS011;14660;49.008;8.390;2022-07-22T02:42:26;18.13;;;11.18;;
27127;SDS011;14660;49.008;8.390;2022-07-22T02:44:53;15.27;;;12.75;;
27127;SDS011;14660;49.008;8.390;2022-07-22T02:47:20;15.23;;;11.73;;
27127;SDS011;14660;49.008;8.390;2022-07-22T02:49:47;15.65;;;11.55;;
27127;SDS011;14660;49.008;8.390;2022-07-22T02:52:14;14.50;;;12.18;;
27127;SDS011;14660;49.008;8.390;2022-07-22T02:54:40;13.38;;;11.40;;
27127;SDS011;14660;49.008;8.390;2022-07-22T02:57:08;14.40;;;12.10;;
27127;SDS011;14660;49.008;8.390;2022-07-22T02:59:35;14.32;;;11.50;;
27127;SDS011;14660;49.008;8.390;2022-07-22T03:02:01;15.75;;;12.10;;
27127;SDS011;14660;49.008;8.390;2022-07-22T03:04:28;15.02;;;11.70;;
27127;SDS011;14660;49.008;8.390;2022-07-22T03:06:55;13.13;;;11.73;;
27127;SDS011;14660;49.008;8.390;2022-07-22T03:09:20;16.10;;;12.30;;
27127;SDS011;14660;49.008;8.390;2022-07-22T03:11:47;14.32;;;11.50;;
27127;SDS011;14660;49.008;8.390;2022-07-22T03:14:14;15.25;;;10.93;;
27127;SDS011;14660;49.008;8.390;2022-07-22T03:16:42;13.88;;;11.80;;
27127;SDS011;14660;49.008;8.390;2022-07-22T03:19:09;14.50;;;11.93;;
27127;SDS011;14660;49.008;8.390;2022-07-22T03:21:36;13.60;;;11.63;;
27127;SDS011;14660;49.008;8.390;2022-07-22T03:24:03;12.82;;;10.25;;
27127;SDS011;14660;49.008;8.390;2022-07-22T03:26:30;13.77;;;11.40;;
27127;SDS011;14660;49.008;8.390;2022-07-22T03:28:57;13.75;;;11.13;;
27127;SDS011;14660;49.008;8.390;2022-07-22T03:31:24;15.73;;;13.43;;
27127;SDS011;14660;49.008;8.390;2022-07-22T03:33:51;16.10;;;12.50;;
27127;SDS011;14660;49.008;8.390;2022-07-22T03:36:18;14.75;;;10.35;;
27127;SDS011;14660;49.008;8.390;2022-07-22T03:38:44;16.67;;;11.55;;
27127;SDS011;14660;49.008;8.390;2022-07-22T03:41:11;14.73;;;11.95;;
27127;SDS011;14660;49.008;8.390;2022-07-22T03:43:38;16.67;;;11.43;;
27127;SDS011;14660;49.008;8.390;2022-07-22T03:46:04;12.55;;;10.73;;
27127;SDS011;14660;49.008;8.390;2022-07-22T03:48:31;14.35;;;11.95;;
27127;SDS011;14660;49.008;8.390;2022-07-22T03:50:58;14.00;;;11.82;;
27127;SDS011;14660;49.008;8.390;2022-07-22T03:53:25;15.52;;;13.15;;
27127;SDS011;14660;49.008;8.390;2022-07-22T03:55:52;15.77;;;13.05;;
27127;SDS011;14660;49.008;8.390;2022-07-22T03:58:18;14.95;;;12.15;;
27127;SDS011;14660;49.008;8.390;2022-07-22T04:00:45;13.80;;;11.98;;
27127;SDS011;14660;49.008;8.390;2022-07-22T04:03:12;14.88;;;12.30;;
27127;SDS011;14660;49.008;8.390;2022-07-22T04:05:39;16.17;;;12.05;;
27127;SDS011;14660;49.008;8.390;2022-07-22T04:08:06;13.52;;;12.13;;
27127;SDS011;14660;49.008;8.390;2022-07-22T04:10:33;16.40;;;12.82;;
27127;SDS011;14660;49.008;8.390;2022-07-22T04:13:00;14.73;;;12.68;;
27127;SDS011;14660;49.008;8.390;2022-07-22T04:15:27;14.65;;;13.10;;
27127;SDS011;14660;49.008;8.390;2022-07-22T04:17:54;18.95;;;13.25;;
27127;SDS011;14660;49.008;8.390;2022-07-22T04:20:21;13.10;;;11.52;;
27127;SDS011;14660;49.008;8.390;2022-07-22T04:22:48;14.40;;;12.35;;
27127;SDS011;14660;49.008;8.390;2022-07-22T04:25:14;14.93;;;11.68;;
27127;SDS011;14660;49.008;8.390;2022-07-22T04:27:41;16.60;;;12.50;;
27127;SDS011;14660;49.008;8.390;2022-07-22T04:30:08;16.40;;;12.00;;
27127;SDS011;14660;49.008;8.390;2022-07-22T04:32:36;14.07;;;12.02;;
27127;SDS011;14660;49.008;8.390;2022-07-22T04:35:03;14.68;;;11.70;;
27127;SDS011;14660;49.008;8.390;2022-07-22T04:37:31;16.08;;;12.30;;
27127;SDS011;14660;49.008;8.390;2022-07-22T04:39:58;13.18;;;11.45;;
27127;SDS011;14660;49.008;8.390;2022-07-22T04:42:25;14.90;;;12.45;;
27127;SDS011;14660;49.008;8.390;2022-07-22T04:44:52;16.52;;;12.82;;
27127;SDS011;14660;49.008;8.390;2022-07-22T04:47:19;14.85;;;11.50;;
27127;SDS011;14660;49.008;8.390;2022-07-22T04:49:45;14.23;;;11.80;;
27127;SDS011;14660;49.008;8.390;2022-07-22T04:52:12;14.00;;;12.45;;
27127;SDS011;14660;49.008;8.390;2022-07-22T04:54:39;17.27;;;13.40;;
27127;SDS011;14660;49.008;8.390;2022-07-22T04:57:06;16.20;;;11.52;;
27127;SDS011;14660;49.008;8.390;2022-07-22T04:59:32;16.55;;;12.63;;
27127;SDS011;14660;49.008;8.390;2022-07-22T05:01:58;16.52;;;12.10;;
27127;SDS011;14660;49.008;8.390;2022-07-22T05:04:25;14.15;;;11.38;;
27127;SDS011;14660;49.008;8.390;2022-07-22T05:06:52;13.70;;;11.35;;
27127;SDS011;14660;49.008;8.390;2022-07-22T05:09:19;16.33;;;11.88;;
27127;SDS011;14660;49.008;8.390;2022-07-22T05:11:46;17.95;;;11.98;;
27127;SDS011;14660;49.008;8.390;2022-07-22T05:14:12;12.57;;;11.30;;
27127;SDS011;14660;49.008;8.390;2022-07-22T05:16:39;12.30;;;11.00;;
27127;SDS011;14660;49.008;8.390;2022-07-22T05:19:06;14.07;;;11.10;;
27127;SDS011;14660;49.008;8.390;2022-07-22T05:21:33;11.90;;;10.68;;
27127;SDS011;14660;49.008;8.390;2022-07-22T05:24:00;12.75;;;10.65;;
27127;SDS011;14660;49.008;8.390;2022-07-22T05:26:26;14.45;;;10.98;;
27127;SDS011;14660;49.008;8.390;2022-07-22T05:28:55;13.13;;;10.35;;
27127;SDS011;14660;49.008;8.390;2022-07-22T05:31:22;11.35;;;9.95;;
27127;SDS011;14660;49.008;8.390;2022-07-22T05:33:49;11.93;;;9.88;;
27127;SDS011;14660;49.008;8.390;2022-07-22T05:36:16;10.65;;;9.48;;
27127;SDS011;14660;49.008;8.390;2022-07-22T05:38:42;12.45;;;10.48;;
27127;SDS011;14660;49.008;8.390;2022-07-22T05:41:09;11.90;;;10.38;;
27127;SDS011;14660;49.008;8.390;2022-07-22T05:43:36;15.25;;;10.15;;
27127;SDS011;14660;49.008;8.390;2022-07-22T05:46:03;16.75;;;9.07;;
27127;SDS011;14660;49.008;8.390;2022-07-22T05:48:30;12.85;;;9.75;;
27127;SDS011;14660;49.008;8.390;2022-07-22T05:50:57;10.90;;;9.25;;
27127;SDS011;14660;49.008;8.390;2022-07-22T05:53:24;13.00;;;10.27;;
27127;SDS011;14660;49.008;8.390;2022-07-22T05:55:51;16.05;;;10.27;;
27127;SDS011;14660;49.008;8.390;2022-07-22T05:58:18;9.65;;;8.65;;
27127;SDS011;14660;49.008;8.390;2022-07-22T06:00:45;11.68;;;9.55;;
27127;SDS011;14660;49.008;8.390;2022-07-22T06:03:12;12.73;;;9.38;;
27127;SDS011;14660;49.008;8.390;2022-07-22T06:05:38;14.18;;;10.30;;
27127;SDS011;14660;49.008;8.390;2022-07-22T06:08:05;12.15;;;9.20;;
27127;SDS011;14660;49.008;8.390;2022-07-22T06:10:32;11.90;;;9.00;;
27127;SDS011;14660;49.008;8.390;2022-07-22T06:12:59;12.13;;;8.63;;
27127;SDS011;14660;49.008;8.390;2022-07-22T06:15:26;10.90;;;9.02;;
27127;SDS011;14660;49.008;8.390;2022-07-22T06:17:52;13.40;;;9.90;;
27127;SDS011;14660;49.008;8.390;2022-07-22T06:20:19;13.35;;;10.13;;
27127;SDS011;14660;49.008;8.390;2022-07-22T06:22:46;13.63;;;10.35;;
27127;SDS011;14660;49.008;8.390;2022-07-22T06:25:13;9.93;;;8.88;;
27127;SDS011;14660;49.008;8.390;2022-07-22T06:27:40;13.40;;;10.45;;
27127;SDS011;14660;49.008;8.390;2022-07-22T06:30:07;14.32;;;10.43;;
27127;SDS011;14660;49.008;8.390;2022-07-22T06:32:34;13.70;;;9.43;;
27127;SDS011;14660;49.008;8.390;2022-07-22T06:35:01;14.55;;;9.50;;
27127;SDS011;14660;49.008;8.390;2022-07-22T06:37:29;12.25;;;10.20;;
27127;SDS011;14660;49.008;8.390;2022-07-22T06:39:55;10.60;;;9.07;;
27127;SDS011;14660;49.008;8.390;2022-07-22T06:42:22;11.32;;;9.15;;
27127;SDS011;14660;49.008;8.390;2022-07-22T06:44:50;11.43;;;10.07;;
27127;SDS011;14660;49.008;8.390;2022-07-22T06:47:17;12.68;;;9.55;;
27127;SDS011;14660;49.008;8.390;2022-07-22T06:49:44;10.93;;;9.45;;
27127;SDS011;14660;49.008;8.390;2022-07-22T06:52:11;10.23;;;9.10;;
27127;SDS011;14660;49.008;8.390;2022-07-22T06:54:38;11.25;;;9.25;;
27127;SDS011;14660;49.008;8.390;2022-07-22T06:57:04;12.70;;;9.30;;
27127;SDS011;14660;49.008;8.390;2022-07-22T06:59:38;11.40;;;10.20;;
27127;SDS011;14660;49.008;8.390;2022-07-22T07:02:05;11.40;;;9.45;;
27127;SDS011;14660;49.008;8.390;2022-07-22T07:04:32;11.65;;;9.38;;
27127;SDS011;14660;49.008;8.390;2022-07-22T07:06:58;12.68;;;9.85;;
27127;SDS011;14660;49.008;8.390;2022-07-22T07:09:25;11.48;;;10.25;;
27127;SDS011;14660;49.008;8.390;2022-07-22T07:11:52;14.23;;;9.55;;
27127;SDS011;14660;49.008;8.390;2022-07-22T07:14:18;15.57;;;10.88;;
27127;SDS011;14660;49.008;8.390;2022-07-22T07:16:45;15.80;;;11.25;;
27127;SDS011;14660;49.008;8.390;2022-07-22T07:19:12;13.85;;;11.48;;
27127;SDS011;14660;49.008;8.390;2022-07-22T07:21:39;13.52;;;10.63;;
27127;SDS011;14660;49.008;8.390;2022-07-22T07:24:12;17.13;;;10.93;;
27127;SDS011;14660;49.008;8.390;2022-07-22T07:26:39;16.52;;;11.95;;
27127;SDS011;14660;49.008;8.390;2022-07-22T07:29:06;12.38;;;10.13;;
27127;SDS011;14660;49.008;8.390;2022-07-22T07:31:33;13.82;;;10.45;;
27127;SDS011;14660;49.008;8.390;2022-07-22T07:33:59;12.90;;;10.07;;
27127;SDS011;14660;49.008;8.390;2022-07-22T07:36:26;12.73;;;11.43;;
27127;SDS011;14660;49.008;8.390;2022-07-22T07:38:53;13.85;;;11.75;;
27127;SDS011;14660;49.008;8.390;2022-07-22T07:41:19;13.98;;;10.55;;
27127;SDS011;14660;49.008;8.390;2022-07-22T07:43:46;13.27;;;10.35;;
27127;SDS011;14660;49.008;8.390;2022-07-22T07:46:13;12.10;;;10.80;;
27127;SDS011;14660;49.008;8.390;2022-07-22T07:48:41;11.48;;;10.10;;
27127;SDS011;14660;49.008;8.390;2022-07-22T07:51:08;12.68;;;11.38;;
27127;SDS011;14660;49.008;8.390;2022-07-22T07:53:35;16.73;;;10.52;;
27127;SDS011;14660;49.008;8.390;2022-07-22T07:56:02;14.45;;;11.07;;
27127;SDS011;14660;49.008;8.390;2022-07-22T07:58:29;14.27;;;11.13;;
27127;SDS011;14660;49.008;8.390;2022-07-22T08:00:56;13.77;;;11.38;;
27127;SDS011;14660;49.008;8.390;2022-07-22T08:03:23;11.57;;;10.38;;
27127;SDS011;14660;49.008;8.390;2022-07-22T08:05:50;15.25;;;11.25;;
27127;SDS011;14660;49.008;8.390;2022-07-22T08:08:17;15.68;;;10.13;;
27127;SDS011;14660;49.008;8.390;2022-07-22T08:10:45;11.20;;;10.00;;
27127;SDS011;14660;49.008;8.390;2022-07-22T08:13:12;11.32;;;10.13;;
27127;SDS011;14660;49.008;8.390;2022-07-22T08:15:39;12.02;;;10.68;;
27127;SDS011;14660;49.008;8.390;2022-07-22T08:18:05;13.98;;;10.30;;
27127;SDS011;14660;49.008;8.390;2022-07-22T08:20:32;14.32;;;10.90;;
27127;SDS011;14660;49.008;8.390;2022-07-22T08:22:59;11.02;;;9.55;;
27127;SDS011;14660;49.008;8.390;2022-07-22T08:25:26;13.00;;;9.90;;
27127;SDS011;14660;49.008;8.390;2022-07-22T08:27:54;12.50;;;10.48;;
27127;SDS011;14660;49.008;8.390;2022-07-22T08:30:21;15.73;;;10.73;;
27127;SDS011;14660;49.008;8.390;2022-07-22T08:32:49;12.30;;;10.25;;
27127;SDS011;14660;49.008;8.390;2022-07-22T08:35:16;13.85;;;10.80;;
27127;SDS011;14660;49.008;8.390;2022-07-22T08:37:44;14.32;;;9.98;;
27127;SDS011;14660;49.008;8.390;2022-07-22T08:40:14;13.82;;;10.07;;
27127;SDS011;14660;49.008;8.390;2022-07-22T08:42:42;12.88;;;10.02;;
27127;SDS011;14660;49.008;8.390;2022-07-22T08:45:11;12.13;;;10.05;;
27127;SDS011;14660;49.008;8.390;2022-07-22T08:47:38;11.10;;;9.98;;
27127;SDS011;14660;49.008;8.390;2022-07-22T08:50:05;10.35;;;9.27;;
27127;SDS011;14660;49.008;8.390;2022-07-22T08:52:32;12.30;;;10.73;;
27127;SDS011;14660;49.008;8.390;2022-07-22T08:55:02;13.15;;;9.40;;
27127;SDS011;14660;49.008;8.390;2022-07-22T08:57:32;10.70;;;8.95;;
27127;SDS011;14660;49.008;8.390;2022-07-22T09:00:00;10.48;;;9.13;;
27127;SDS011;14660;49.008;8.390;2022-07-22T09:02:27;10.77;;;9.40;;
27127;SDS011;14660;49.008;8.390;2022-07-22T09:05:04;11.15;;;9.13;;
27127;SDS011;14660;49.008;8.390;2022-07-22T09:07:39;10.85;;;9.35;;
27127;SDS011;14660;49.008;8.390;2022-07-22T09:10:12;9.80;;;8.68;;
27127;SDS011;14660;49.008;8.390;2022-07-22T09:12:55;11.63;;;9.13;;
27127;SDS011;14660;49.008;8.390;2022-07-22T09:15:26;10.45;;;9.10;;
27127;SDS011;14660;49.008;8.390;2022-07-22T09:18:02;12.82;;;9.27;;
27127;SDS011;14660;49.008;8.390;2022-07-22T09:20:30;12.90;;;9.55;;
27127;SDS011;14660;49.008;8.390;2022-07-22T09:22:58;11.48;;;8.68;;
27127;SDS011;14660;49.008;8.390;2022-07-22T09:30:54;11.85;;;8.93;;
27127;SDS011;14660;49.008;8.390;2022-07-22T09:33:22;11.32;;;9.20;;
27127;SDS011;14660;49.008;8.390;2022-07-22T09:35:49;11.10;;;9.40;;
27127;SDS011;14660;49.008;8.390;2022-07-22T09:38:18;13.35;;;9.55;;
27127;SDS011;14660;49.008;8.390;2022-07-22T09:40:52;12.27;;;9.00;;
27127;SDS011;14660;49.008;8.390;2022-07-22T09:43:20;9.27;;;8.38;;
27127;SDS011;14660;49.008;8.390;2022-07-22T09:48:31;11.20;;;9.20;;
27127;SDS011;14660;49.008;8.390;2022-07-22T09:50:59;10.98;;;9.35;;
27127;SDS011;14660;49.008;8.390;2022-07-22T09:53:27;11.25;;;8.93;;
27127;SDS011;14660;49.008;8.390;2022-07-22T09:55:59;11.77;;;9.45;;
27127;SDS011;14660;49.008;8.390;2022-07-22T09:58:28;14.73;;;10.38;;
27127;SDS011;14660;49.008;8.390;2022-07-22T10:00:57;11.75;;;9.25;;
27127;SDS011;14660;49.008;8.390;2022-07-22T10:03:30;11.80;;;8.45;;
27127;SDS011;14660;49.008;8.390;2022-07-22T10:06:00;10.95;;;9.80;;
27127;SDS011;14660;49.008;8.390;2022-07-22T10:08:30;10.02;;;8.90;;
27127;SDS011;14660;49.008;8.390;2022-07-22T10:11:02;9.18;;;8.27;;
27127;SDS011;14660;49.008;8.390;2022-07-22T10:15:58;10.55;;;8.68;;
27127;SDS011;14660;49.008;8.390;2022-07-22T10:18:26;10.93;;;8.63;;
27127;SDS011;14660;49.008;8.390;2022-07-22T10:21:03;10.98;;;8.80;;
27127;SDS011;14660;49.008;8.390;2022-07-22T10:23:33;10.10;;;8.95;;
27127;SDS011;14660;49.008;8.390;2022-07-22T10:26:00;9.95;;;8.98;;
27127;SDS011;14660;49.008;8.390;2022-07-22T10:34:00;9.30;;;8.32;;
27127;SDS011;14660;49.008;8.390;2022-07-22T10:36:36;9.80;;;8.48;;
27127;SDS011;14660;49.008;8.390;2022-07-22T10:39:11;9.77;;;8.85;;
27127;SDS011;14660;49.008;8.390;2022-07-22T10:41:43;13.43;;;7.88;;
27127;SDS011;14660;49.008;8.390;2022-07-22T10:44:10;10.97;;;9.13;;
27127;SDS011;14660;49.008;8.390;2022-07-22T10:49:37;9.95;;;8.73;;
27127;SDS011;14660;49.008;8.390;2022-07-22T10:57:58;9.90;;;8.57;;
27127;SDS011;14660;49.008;8.390;2022-07-22T11:00:25;11.52;;;8.68;;
27127;SDS011;14660;49.008;8.390;2022-07-22T11:02:52;9.93;;;8.90;;
27127;SDS011;14660;49.008;8.390;2022-07-22T11:05:28;10.23;;;8.48;;
27127;SDS011;14660;49.008;8.390;2022-07-22T11:07:56;11.48;;;8.48;;
27127;SDS011;14660;49.008;8.390;2022-07-22T11:10:24;10.07;;;8.57;;
27127;SDS011;14660;49.008;8.390;2022-07-22T11:12:51;9.98;;;8.40;;
27127;SDS011;14660;49.008;8.390;2022-07-22T11:15:18;8.95;;;8.05;;
27127;SDS011;14660;49.008;8.390;2022-07-22T11:17:55;11.38;;;8.38;;
27127;SDS011;14660;49.008;8.390;2022-07-22T11:20:23;9.25;;;8.25;;
27127;SDS011;14660;49.008;8.390;2022-07-22T11:22:50;9.93;;;7.90;;
27127;SDS011;14660;49.008;8.390;2022-07-22T11:25:17;11.95;;;8.70;;
27127;SDS011;14660;49.008;8.390;2022-07-22T11:27:54;11.38;;;8.60;;
27127;SDS011;14660;49.008;8.390;2022-07-22T11:30:24;10.00;;;8.23;;
27127;SDS011;14660;49.008;8.390;2022-07-22T11:32:51;11.73;;;9.25;;
27127;SDS011;14660;49.008;8.390;2022-07-22T11:35:17;9.82;;;8.52;;
27127;SDS011;14660;49.008;8.390;2022-07-22T11:37:54;10.40;;;8.60;;
27127;SDS011;14660;49.008;8.390;2022-07-22T11:40:22;10.02;;;9.02;;
27127;SDS011;14660;49.008;8.390;2022-07-22T11:43:00;10.68;;;9.40;;
27127;SDS011;14660;49.008;8.390;2022-07-22T11:45:29;11.07;;;8.52;;
27127;SDS011;14660;49.008;8.390;2022-07-22T11:47:56;8.95;;;8.05;;
27127;SDS011;14660;49.008;8.390;2022-07-22T11:50:32;10.25;;;8.15;;
27127;SDS011;14660;49.008;8.390;2022-07-22T11:53:01;9.70;;;8.48;;
27127;SDS011;14660;49.008;8.390;2022-07-22T11:55:28;9.57;;;8.68;;
27127;SDS011;14660;49.008;8.390;2022-07-22T11:57:55;10.02;;;9.02;;
27127;SDS011;14660;49.008;8.390;2022-07-22T12:00:22;9.70;;;8.48;;
27127;SDS011;14660;49.008;8.390;2022-07-22T12:02:49;9.65;;;8.40;;
27127;SDS011;14660;49.008;8.390;2022-07-22T12:05:16;9.00;;;8.10;;
27127;SDS011;14660;49.008;8.390;2022-07-22T12:07:44;10.38;;;9.48;;
27127;SDS011;14660;49.008;8.390;2022-07-22T12:10:11;9.88;;;8.88;;
27127;SDS011;14660;49.008;8.390;2022-07-22T12:12:38;8.70;;;7.80;;
27127;SDS011;14660;49.008;8.390;2022-07-22T12:15:06;9.65;;;8.55;;
27127;SDS011;14660;49.008;8.390;2022-07-22T12:17:34;9.82;;;8.38;;
27127;SDS011;14660;49.008;8.390;2022-07-22T12:20:10;9.48;;;8.57;;
27127;SDS011;14660;49.008;8.390;2022-07-22T12:22:47;9.60;;;8.60;;
27127;SDS011;14660;49.008;8.390;2022-07-22T12:25:15;11.05;;;8.80;;
27127;SDS011;14660;49.008;8.390;2022-07-22T12:27:58;12.48;;;8.32;;
27127;SDS011;14660;49.008;8.390;2022-07-22T12:32:53;9.75;;;8.77;;
27127;SDS011;14660;49.008;8.390;2022-07-22T12:35:25;8.82;;;7.70;;
27127;SDS011;14660;49.008;8.390;2022-07-22T12:38:04;9.30;;;8.40;;
27127;SDS011;14660;49.008;8.390;2022-07-22T12:40:33;12.40;;;8.30;;
27127;SDS011;14660;49.008;8.390;2022-07-22T12:45:51;12.45;;;8.68;;
27127;SDS011;14660;49.008;8.390;2022-07-22T12:48:18;9.07;;;8.25;;
27127;SDS011;14660;49.008;8.390;2022-07-22T12:53:30;8.98;;;8.02;;
27127;SDS011;14660;49.008;8.390;2022-07-22T12:55:59;10.35;;;8.65;;
27127;SDS011;14660;49.008;8.390;2022-07-22T12:58:29;12.32;;;8.38;;
27127;SDS011;14660;49.008;8.390;2022-07-22T13:00:58;9.80;;;8.32;;
27127;SDS011;14660;49.008;8.390;2022-07-22T13:03:26;8.82;;;8.02;;
27127;SDS011;14660;49.008;8.390;2022-07-22T13:05:55;9.63;;;8.63;;
27127;SDS011;14660;49.008;8.390;2022-07-22T13:08:22;9.30;;;7.85;;
27127;SDS011;14660;49.008;8.390;2022-07-22T13:10:50;10.15;;;8.80;;
27127;SDS011;14660;49.008;8.390;2022-07-22T13:13:18;11.55;;;8.25;;
27127;SDS011;14660;49.008;8.390;2022-07-22T13:15:45;8.88;;;7.97;;
27127;SDS011;14660;49.008;8.390;2022-07-22T13:18:12;9.75;;;8.73;;
27127;SDS011;14660;49.008;8.390;2022-07-22T13:20:39;9.27;;;8.23;;
27127;SDS011;14660;49.008;8.390;2022-07-22T13:23:06;9.68;;;8.68;;
27127;SDS011;14660;49.008;8.390;2022-07-22T13:25:39;10.25;;;9.07;;
27127;SDS011;14660;49.008;8.390;2022-07-22T13:28:06;10.45;;;9.35;;
27127;SDS011;14660;49.008;8.390;2022-07-22T13:30:33;9.57;;;8.57;;
27127;SDS011;14660;49.008;8.390;2022-07-22T13:33:00;10.50;;;8.80;;
27127;SDS011;14660;49.008;8.390;2022-07-22T13:35:27;8.90;;;8.05;;
27127;SDS011;14660;49.008;8.390;2022-07-22T13:37:56;11.35;;;8.60;;
27127;SDS011;14660;49.008;8.390;2022-07-22T13:40:22;9.50;;;8.50;;
27127;SDS011;14660;49.008;8.390;2022-07-22T13:42:49;9.15;;;7.95;;
27127;SDS011;14660;49.008;8.390;2022-07-22T13:45:16;9.65;;;8.52;;
27127;SDS011;14660;49.008;8.390;2022-07-22T13:47:43;9.60;;;8.63;;
27127;SDS011;14660;49.008;8.390;2022-07-22T13:50:09;9.77;;;8.88;;
27127;SDS011;14660;49.008;8.390;2022-07-22T13:52:36;9.35;;;8.35;;
27127;SDS011;14660;49.008;8.390;2022-07-22T13:55:03;10.27;;;8.80;;
27127;SDS011;14660;49.008;8.390;2022-07-22T13:57:31;9.07;;;8.00;;
27127;SDS011;14660;49.008;8.390;2022-07-22T13:59:58;10.15;;;9.13;;
27127;SDS011;14660;49.008;8.390;2022-07-22T14:02:25;12.00;;;9.00;;
27127;SDS011;14660;49.008;8.390;2022-07-22T14:04:52;8.73;;;7.88;;
27127;SDS011;14660;49.008;8.390;2022-07-22T14:07:19;10.13;;;9.10;;
27127;SDS011;14660;49.008;8.390;2022-07-22T14:09:46;9.65;;;8.07;;
27127;SDS011;14660;49.008;8.390;2022-07-22T14:12:13;9.35;;;8.35;;
27127;SDS011;14660;49.008;8.390;2022-07-22T14:14:40;9.48;;;7.82;;
27127;SDS011;14660;49.008;8.390;2022-07-22T14:17:07;10.48;;;8.00;;
27127;SDS011;14660;49.008;8.390;2022-07-22T14:19:33;9.10;;;8.30;;
27127;SDS011;14660;49.008;8.390;2022-07-22T14:22:00;10.50;;;8.43;;
27127;SDS011;14660;49.008;8.390;2022-07-22T14:24:27;8.88;;;8.07;;
27127;SDS011;14660;49.008;8.390;2022-07-22T14:26:54;8.63;;;7.55;;
27127;SDS011;14660;49.008;8.390;2022-07-22T14:29:21;13.05;;;8.27;;
27127;SDS011;14660;49.008;8.390;2022-07-22T14:31:48;8.65;;;7.55;;
27127;SDS011;14660;49.008;8.390;2022-07-22T14:34:15;9.85;;;7.95;;
27127;SDS011;14660;49.008;8.390;2022-07-22T14:36:42;12.05;;;8.95;;
27127;SDS011;14660;49.008;8.390;2022-07-22T14:39:09;16.33;;;8.35;;
27127;SDS011;14660;49.008;8.390;2022-07-22T14:41:36;10.00;;;8.70;;
27127;SDS011;14660;49.008;8.390;2022-07-22T14:44:03;11.00;;;8.75;;
27127;SDS011;14660;49.008;8.390;2022-07-22T14:46:30;9.23;;;8.38;;
27127;SDS011;14660;49.008;8.390;2022-07-22T14:48:58;11.68;;;7.88;;
27127;SDS011;14660;49.008;8.390;2022-07-22T14:51:25;9.50;;;8.02;;
27127;SDS011;14660;49.008;8.390;2022-07-22T14:53:52;8.23;;;7.43;;
27127;SDS011;14660;49.008;8.390;2022-07-22T14:56:19;8.75;;;7.72;;
27127;SDS011;14660;49.008;8.390;2022-07-22T14:58:46;11.85;;;8.63;;
27127;SDS011;14660;49.008;8.390;2022-07-22T15:01:14;9.27;;;8.23;;
27127;SDS011;14660;49.008;8.390;2022-07-22T15:03:40;9.98;;;8.98;;
27127;SDS011;14660;49.008;8.390;2022-07-22T15:06:08;9.15;;;7.70;;
27127;SDS011;14660;49.008;8.390;2022-07-22T15:08:36;12.68;;;8.68;;